sensor_id;sensor_type;location;lat;lon;timestamp;P1;durP1;ratioP1;P2;durP2;ratioP2
65853;SDS011;52627;48.838;2.402;2023-02-18T00:01:45;6.50;;;3.60;;
65853;SDS011;52627;48.838;2.402;2023-02-18T00:04:13;6.30;;;4.30;;
65853;SDS011;52627;48.838;2.402;2023-02-18T00:06:40;6.10;;;3.80;;
65853;SDS011;52627;48.838;2.402;2023-02-18T00:09:09;5.40;;;4.00;;
65853;SDS011;52627;48.838;2.402;2023-02-18T00:11:37;7.50;;;4.20;;
65853;SDS011;52627;48.838;2.402;2023-02-18T00:14:10;5.70;;;3.80;;
65853;SDS011;52627;48.838;2.402;2023-02-18T00:16:40;6.40;;;3.90;;
65853;SDS011;52627;48.838;2.402;2023-02-18T00:19:12;6.20;;;4.00;;
65853;SDS011;52627;48.838;2.402;2023-02-18T00:21:42;6.40;;;4.00;;
65853;SDS011;52627;48.838;2.402;2023-02-18T00:24:12;7.60;;;4.50;;
65853;SDS011;52627;48.838;2.402;2023-02-18T00:26:44;6.90;;;4.30;;
65853;SDS011;52627;48.838;2.402;2023-02-18T00:29:11;6.00;;;3.90;;
65853;SDS011;52627;48.838;2.402;2023-02-18T00:31:39;8.10;;;4.50;;
65853;SDS011;52627;48.838;2.402;2023-02-18T00:34:09;5.20;;;3.80;;
65853;SDS011;52627;48.838;2.402;2023-02-18T00:36:38;5.90;;;3.60;;
65853;SDS011;52627;48.838;2.402;2023-02-18T00:39:07;5.80;;;3.80;;
65853;SDS011;52627;48.838;2.402;2023-02-18T00:41:36;6.10;;;4.10;;
65853;SDS011;52627;48.838;2.402;2023-02-18T00:44:04;5.10;;;3.50;;
65853;SDS011;52627;48.838;2.402;2023-02-18T00:46:33;5.10;;;3.70;;
65853;SDS011;52627;48.838;2.402;2023-02-18T00:49:01;7.20;;;4.00;;
65853;SDS011;52627;48.838;2.402;2023-02-18T00:51:29;7.90;;;4.10;;
65853;SDS011;52627;48.838;2.402;2023-02-18T00:53:57;6.50;;;4.10;;
65853;SDS011;52627;48.838;2.402;2023-02-18T00:56:25;4.90;;;3.60;;
65853;SDS011;52627;48.838;2.402;2023-02-18T00:58:53;6.20;;;3.60;;
65853;SDS011;52627;48.838;2.402;2023-02-18T01:01:20;5.70;;;3.70;;
65853;SDS011;52627;48.838;2.402;2023-02-18T01:03:48;5.50;;;3.60;;
65853;SDS011;52627;48.838;2.402;2023-02-18T01:06:16;5.70;;;3.80;;
65853;SDS011;52627;48.838;2.402;2023-02-18T01:08:43;5.90;;;3.70;;
65853;SDS011;52627;48.838;2.402;2023-02-18T01:11:11;4.90;;;3.60;;
65853;SDS011;52627;48.838;2.402;2023-02-18T01:13:40;6.90;;;3.60;;
65853;SDS011;52627;48.838;2.402;2023-02-18T01:16:09;6.40;;;4.00;;
65853;SDS011;52627;48.838;2.402;2023-02-18T01:18:37;5.20;;;3.70;;
65853;SDS011;52627;48.838;2.402;2023-02-18T01:21:06;7.10;;;4.30;;
65853;SDS011;52627;48.838;2.402;2023-02-18T01:23:36;7.10;;;4.60;;
65853;SDS011;52627;48.838;2.402;2023-02-18T01:26:05;5.20;;;3.80;;
65853;SDS011;52627;48.838;2.402;2023-02-18T01:28:34;5.80;;;4.20;;
65853;SDS011;52627;48.838;2.402;2023-02-18T01:31:07;6.90;;;4.40;;
65853;SDS011;52627;48.838;2.402;2023-02-18T01:33:36;6.20;;;4.40;;
65853;SDS011;52627;48.838;2.402;2023-02-18T01:36:04;6.40;;;4.60;;
65853;SDS011;52627;48.838;2.402;2023-02-18T01:38:33;5.20;;;3.90;;
65853;SDS011;52627;48.838;2.402;2023-02-18T01:41:02;6.80;;;4.40;;
65853;SDS011;52627;48.838;2.402;2023-02-18T01:43:30;6.00;;;3.90;;
65853;SDS011;52627;48.838;2.402;2023-02-18T01:46:19;7.70;;;4.00;;
65853;SDS011;52627;48.838;2.402;2023-02-18T01:48:55;6.80;;;4.20;;
65853;SDS011;52627;48.838;2.402;2023-02-18T01:51:29;5.80;;;4.00;;
65853;SDS011;52627;48.838;2.402;2023-02-18T01:56:40;5.70;;;3.80;;
65853;SDS011;52627;48.838;2.402;2023-02-18T01:59:24;6.80;;;3.90;;
65853;SDS011;52627;48.838;2.402;2023-02-18T02:01:53;5.00;;;3.60;;
65853;SDS011;52627;48.838;2.402;2023-02-18T02:04:22;7.00;;;3.80;;
65853;SDS011;52627;48.838;2.402;2023-02-18T02:06:49;6.60;;;3.50;;
65853;SDS011;52627;48.838;2.402;2023-02-18T02:09:18;6.90;;;4.00;;
65853;SDS011;52627;48.838;2.402;2023-02-18T02:12:05;4.70;;;3.60;;
65853;SDS011;52627;48.838;2.402;2023-02-18T02:31:41;4.80;;;3.40;;
65853;SDS011;52627;48.838;2.402;2023-02-18T02:34:44;5.90;;;3.20;;
65853;SDS011;52627;48.838;2.402;2023-02-18T02:37:35;5.30;;;3.20;;
65853;SDS011;52627;48.838;2.402;2023-02-18T02:43:23;5.20;;;3.20;;
65853;SDS011;52627;48.838;2.402;2023-02-18T02:52:27;5.80;;;3.20;;
65853;SDS011;52627;48.838;2.402;2023-02-18T02:54:58;4.80;;;3.50;;
65853;SDS011;52627;48.838;2.402;2023-02-18T02:59:59;5.00;;;3.20;;
65853;SDS011;52627;48.838;2.402;2023-02-18T03:02:41;4.70;;;3.30;;
65853;SDS011;52627;48.838;2.402;2023-02-18T03:06:08;6.50;;;3.40;;
65853;SDS011;52627;48.838;2.402;2023-02-18T03:09:04;4.80;;;3.20;;
65853;SDS011;52627;48.838;2.402;2023-02-18T03:11:52;5.00;;;3.10;;
65853;SDS011;52627;48.838;2.402;2023-02-18T03:15:07;4.70;;;3.00;;
65853;SDS011;52627;48.838;2.402;2023-02-18T03:17:47;7.20;;;3.50;;
65853;SDS011;52627;48.838;2.402;2023-02-18T03:20:25;6.30;;;3.70;;
65853;SDS011;52627;48.838;2.402;2023-02-18T03:22:55;5.10;;;3.70;;
65853;SDS011;52627;48.838;2.402;2023-02-18T03:25:24;4.80;;;3.20;;
65853;SDS011;52627;48.838;2.402;2023-02-18T03:27:55;5.80;;;3.70;;
65853;SDS011;52627;48.838;2.402;2023-02-18T03:30:32;7.20;;;3.90;;
65853;SDS011;52627;48.838;2.402;2023-02-18T03:33:05;6.00;;;3.60;;
65853;SDS011;52627;48.838;2.402;2023-02-18T03:35:35;5.50;;;3.60;;
65853;SDS011;52627;48.838;2.402;2023-02-18T03:38:17;6.00;;;3.50;;
65853;SDS011;52627;48.838;2.402;2023-02-18T03:40:49;4.90;;;3.60;;
65853;SDS011;52627;48.838;2.402;2023-02-18T03:43:17;6.20;;;4.20;;
65853;SDS011;52627;48.838;2.402;2023-02-18T03:45:44;5.30;;;3.70;;
65853;SDS011;52627;48.838;2.402;2023-02-18T03:48:12;7.60;;;3.80;;
65853;SDS011;52627;48.838;2.402;2023-02-18T03:50:40;7.50;;;3.80;;
65853;SDS011;52627;48.838;2.402;2023-02-18T03:53:07;8.20;;;4.10;;
65853;SDS011;52627;48.838;2.402;2023-02-18T03:55:35;5.70;;;3.90;;
65853;SDS011;52627;48.838;2.402;2023-02-18T03:58:02;5.20;;;3.70;;
65853;SDS011;52627;48.838;2.402;2023-02-18T04:00:30;5.50;;;3.80;;
65853;SDS011;52627;48.838;2.402;2023-02-18T04:02:57;7.10;;;3.80;;
65853;SDS011;52627;48.838;2.402;2023-02-18T04:05:25;6.30;;;4.10;;
65853;SDS011;52627;48.838;2.402;2023-02-18T04:07:53;5.70;;;3.80;;
65853;SDS011;52627;48.838;2.402;2023-02-18T04:10:20;6.00;;;4.20;;
65853;SDS011;52627;48.838;2.402;2023-02-18T04:12:49;4.70;;;3.30;;
65853;SDS011;52627;48.838;2.402;2023-02-18T04:15:16;6.90;;;3.80;;
65853;SDS011;52627;48.838;2.402;2023-02-18T04:17:44;6.00;;;4.30;;
65853;SDS011;52627;48.838;2.402;2023-02-18T04:20:11;5.70;;;3.80;;
65853;SDS011;52627;48.838;2.402;2023-02-18T04:22:39;6.90;;;4.20;;
65853;SDS011;52627;48.838;2.402;2023-02-18T04:25:07;5.80;;;3.60;;
65853;SDS011;52627;48.838;2.402;2023-02-18T04:27:35;5.60;;;3.50;;
65853;SDS011;52627;48.838;2.402;2023-02-18T04:30:03;5.70;;;3.90;;
65853;SDS011;52627;48.838;2.402;2023-02-18T04:32:31;7.00;;;3.90;;
65853;SDS011;52627;48.838;2.402;2023-02-18T04:34:59;9.10;;;4.10;;
65853;SDS011;52627;48.838;2.402;2023-02-18T04:37:26;6.50;;;4.30;;
65853;SDS011;52627;48.838;2.402;2023-02-18T04:39:54;6.50;;;3.80;;
65853;SDS011;52627;48.838;2.402;2023-02-18T04:42:21;6.20;;;3.40;;
65853;SDS011;52627;48.838;2.402;2023-02-18T04:44:49;5.50;;;3.70;;
65853;SDS011;52627;48.838;2.402;2023-02-18T04:47:16;8.00;;;3.50;;
65853;SDS011;52627;48.838;2.402;2023-02-18T04:49:44;5.80;;;3.30;;
65853;SDS011;52627;48.838;2.402;2023-02-18T04:52:12;5.20;;;3.50;;
65853;SDS011;52627;48.838;2.402;2023-02-18T04:54:39;5.60;;;3.10;;
65853;SDS011;52627;48.838;2.402;2023-02-18T04:57:07;6.60;;;3.20;;
65853;SDS011;52627;48.838;2.402;2023-02-18T04:59:34;4.90;;;3.10;;
65853;SDS011;52627;48.838;2.402;2023-02-18T05:02:03;7.80;;;3.40;;
65853;SDS011;52627;48.838;2.402;2023-02-18T05:04:31;5.40;;;3.30;;
65853;SDS011;52627;48.838;2.402;2023-02-18T05:06:58;6.60;;;3.50;;
65853;SDS011;52627;48.838;2.402;2023-02-18T05:09:26;6.70;;;3.50;;
65853;SDS011;52627;48.838;2.402;2023-02-18T05:11:53;4.80;;;3.30;;
65853;SDS011;52627;48.838;2.402;2023-02-18T05:14:21;6.00;;;3.60;;
65853;SDS011;52627;48.838;2.402;2023-02-18T05:16:48;7.00;;;3.30;;
65853;SDS011;52627;48.838;2.402;2023-02-18T05:19:16;5.10;;;3.20;;
65853;SDS011;52627;48.838;2.402;2023-02-18T05:21:43;7.30;;;3.40;;
65853;SDS011;52627;48.838;2.402;2023-02-18T05:24:11;5.50;;;3.20;;
65853;SDS011;52627;48.838;2.402;2023-02-18T05:26:38;5.40;;;3.50;;
65853;SDS011;52627;48.838;2.402;2023-02-18T05:29:06;4.50;;;3.00;;
65853;SDS011;52627;48.838;2.402;2023-02-18T05:31:33;5.30;;;2.80;;
65853;SDS011;52627;48.838;2.402;2023-02-18T05:34:01;4.60;;;3.10;;
65853;SDS011;52627;48.838;2.402;2023-02-18T05:36:28;6.70;;;3.50;;
65853;SDS011;52627;48.838;2.402;2023-02-18T05:38:56;5.40;;;3.20;;
65853;SDS011;52627;48.838;2.402;2023-02-18T05:41:23;4.40;;;2.90;;
65853;SDS011;52627;48.838;2.402;2023-02-18T05:43:51;6.40;;;3.50;;
65853;SDS011;52627;48.838;2.402;2023-02-18T05:46:37;8.00;;;3.40;;
65853;SDS011;52627;48.838;2.402;2023-02-18T05:49:05;5.20;;;3.10;;
65853;SDS011;52627;48.838;2.402;2023-02-18T05:51:32;6.20;;;3.50;;
65853;SDS011;52627;48.838;2.402;2023-02-18T05:53:59;5.10;;;3.40;;
65853;SDS011;52627;48.838;2.402;2023-02-18T05:56:27;4.90;;;3.30;;
65853;SDS011;52627;48.838;2.402;2023-02-18T05:58:54;5.80;;;3.70;;
65853;SDS011;52627;48.838;2.402;2023-02-18T06:01:22;6.00;;;3.10;;
65853;SDS011;52627;48.838;2.402;2023-02-18T06:03:49;6.90;;;3.30;;
65853;SDS011;52627;48.838;2.402;2023-02-18T06:06:17;6.50;;;3.40;;
65853;SDS011;52627;48.838;2.402;2023-02-18T06:08:44;6.90;;;3.50;;
65853;SDS011;52627;48.838;2.402;2023-02-18T06:11:12;5.10;;;3.50;;
65853;SDS011;52627;48.838;2.402;2023-02-18T06:13:39;6.80;;;3.50;;
65853;SDS011;52627;48.838;2.402;2023-02-18T06:16:07;5.20;;;3.10;;
65853;SDS011;52627;48.838;2.402;2023-02-18T06:18:35;6.70;;;3.50;;
65853;SDS011;52627;48.838;2.402;2023-02-18T06:21:02;6.00;;;4.10;;
65853;SDS011;52627;48.838;2.402;2023-02-18T06:23:30;5.70;;;3.30;;
65853;SDS011;52627;48.838;2.402;2023-02-18T06:25:57;7.40;;;3.50;;
65853;SDS011;52627;48.838;2.402;2023-02-18T06:28:25;6.90;;;3.50;;
65853;SDS011;52627;48.838;2.402;2023-02-18T06:30:53;6.00;;;3.40;;
65853;SDS011;52627;48.838;2.402;2023-02-18T06:33:20;6.30;;;3.60;;
65853;SDS011;52627;48.838;2.402;2023-02-18T06:35:53;5.50;;;3.40;;
65853;SDS011;52627;48.838;2.402;2023-02-18T06:38:22;5.70;;;3.20;;
65853;SDS011;52627;48.838;2.402;2023-02-18T06:40:49;6.50;;;3.60;;
65853;SDS011;52627;48.838;2.402;2023-02-18T06:43:18;5.80;;;3.70;;
65853;SDS011;52627;48.838;2.402;2023-02-18T06:45:46;6.20;;;3.70;;
65853;SDS011;52627;48.838;2.402;2023-02-18T06:48:13;6.50;;;3.30;;
65853;SDS011;52627;48.838;2.402;2023-02-18T06:50:41;6.10;;;3.60;;
65853;SDS011;52627;48.838;2.402;2023-02-18T06:53:09;8.80;;;3.80;;
65853;SDS011;52627;48.838;2.402;2023-02-18T06:55:39;5.80;;;4.00;;
65853;SDS011;52627;48.838;2.402;2023-02-18T06:58:09;5.20;;;3.60;;
65853;SDS011;52627;48.838;2.402;2023-02-18T07:00:38;5.80;;;3.30;;
65853;SDS011;52627;48.838;2.402;2023-02-18T07:03:06;6.10;;;3.60;;
65853;SDS011;52627;48.838;2.402;2023-02-18T07:05:33;5.70;;;3.50;;
65853;SDS011;52627;48.838;2.402;2023-02-18T07:08:01;5.60;;;3.60;;
65853;SDS011;52627;48.838;2.402;2023-02-18T07:10:28;5.60;;;3.50;;
65853;SDS011;52627;48.838;2.402;2023-02-18T07:12:56;5.90;;;3.40;;
65853;SDS011;52627;48.838;2.402;2023-02-18T07:15:23;6.40;;;4.10;;
65853;SDS011;52627;48.838;2.402;2023-02-18T07:17:53;5.30;;;2.90;;
65853;SDS011;52627;48.838;2.402;2023-02-18T07:20:21;4.50;;;3.00;;
65853;SDS011;52627;48.838;2.402;2023-02-18T07:22:50;5.30;;;3.10;;
65853;SDS011;52627;48.838;2.402;2023-02-18T07:25:18;5.90;;;2.80;;
65853;SDS011;52627;48.838;2.402;2023-02-18T07:27:49;6.60;;;3.10;;
65853;SDS011;52627;48.838;2.402;2023-02-18T07:30:19;5.30;;;2.60;;
65853;SDS011;52627;48.838;2.402;2023-02-18T07:32:47;5.90;;;2.60;;
65853;SDS011;52627;48.838;2.402;2023-02-18T07:35:15;4.50;;;2.50;;
65853;SDS011;52627;48.838;2.402;2023-02-18T07:37:46;5.40;;;2.00;;
65853;SDS011;52627;48.838;2.402;2023-02-18T07:40:20;4.60;;;2.50;;
65853;SDS011;52627;48.838;2.402;2023-02-18T07:42:48;6.30;;;2.40;;
65853;SDS011;52627;48.838;2.402;2023-02-18T07:45:16;4.50;;;2.10;;
65853;SDS011;52627;48.838;2.402;2023-02-18T07:47:43;4.80;;;2.20;;
65853;SDS011;52627;48.838;2.402;2023-02-18T07:50:11;3.40;;;2.20;;
65853;SDS011;52627;48.838;2.402;2023-02-18T07:52:39;4.30;;;2.00;;
65853;SDS011;52627;48.838;2.402;2023-02-18T07:55:07;3.70;;;2.10;;
65853;SDS011;52627;48.838;2.402;2023-02-18T07:57:35;5.00;;;2.30;;
65853;SDS011;52627;48.838;2.402;2023-02-18T08:00:22;3.70;;;2.00;;
65853;SDS011;52627;48.838;2.402;2023-02-18T08:02:50;4.70;;;2.20;;
65853;SDS011;52627;48.838;2.402;2023-02-18T08:05:17;3.80;;;1.90;;
65853;SDS011;52627;48.838;2.402;2023-02-18T08:07:45;4.30;;;2.00;;
65853;SDS011;52627;48.838;2.402;2023-02-18T08:10:12;4.60;;;1.80;;
65853;SDS011;52627;48.838;2.402;2023-02-18T08:12:40;5.00;;;1.70;;
65853;SDS011;52627;48.838;2.402;2023-02-18T08:15:08;4.00;;;1.40;;
65853;SDS011;52627;48.838;2.402;2023-02-18T08:17:35;4.60;;;1.70;;
65853;SDS011;52627;48.838;2.402;2023-02-18T08:20:04;3.50;;;1.50;;
65853;SDS011;52627;48.838;2.402;2023-02-18T08:22:34;4.50;;;1.60;;
65853;SDS011;52627;48.838;2.402;2023-02-18T08:25:02;4.70;;;1.80;;
65853;SDS011;52627;48.838;2.402;2023-02-18T08:27:30;4.50;;;1.50;;
65853;SDS011;52627;48.838;2.402;2023-02-18T08:29:58;5.20;;;1.50;;
65853;SDS011;52627;48.838;2.402;2023-02-18T08:32:26;4.60;;;1.50;;
65853;SDS011;52627;48.838;2.402;2023-02-18T08:34:54;4.50;;;1.60;;
65853;SDS011;52627;48.838;2.402;2023-02-18T08:37:22;3.90;;;1.80;;
65853;SDS011;52627;48.838;2.402;2023-02-18T08:39:50;4.80;;;1.70;;
65853;SDS011;52627;48.838;2.402;2023-02-18T08:42:18;4.40;;;1.50;;
65853;SDS011;52627;48.838;2.402;2023-02-18T08:44:45;3.40;;;1.30;;
65853;SDS011;52627;48.838;2.402;2023-02-18T08:47:12;4.70;;;1.50;;
65853;SDS011;52627;48.838;2.402;2023-02-18T08:50:00;5.00;;;1.50;;
65853;SDS011;52627;48.838;2.402;2023-02-18T08:52:27;3.60;;;1.60;;
65853;SDS011;52627;48.838;2.402;2023-02-18T08:54:55;3.90;;;1.30;;
65853;SDS011;52627;48.838;2.402;2023-02-18T08:57:22;5.10;;;1.90;;
65853;SDS011;52627;48.838;2.402;2023-02-18T08:59:50;4.60;;;1.60;;
65853;SDS011;52627;48.838;2.402;2023-02-18T09:02:17;4.40;;;1.50;;
65853;SDS011;52627;48.838;2.402;2023-02-18T09:04:45;3.70;;;1.40;;
65853;SDS011;52627;48.838;2.402;2023-02-18T09:07:12;4.60;;;1.50;;
65853;SDS011;52627;48.838;2.402;2023-02-18T09:09:40;4.30;;;1.40;;
65853;SDS011;52627;48.838;2.402;2023-02-18T09:12:08;3.70;;;1.40;;
65853;SDS011;52627;48.838;2.402;2023-02-18T09:14:35;5.10;;;1.40;;
65853;SDS011;52627;48.838;2.402;2023-02-18T09:17:03;3.70;;;1.30;;
65853;SDS011;52627;48.838;2.402;2023-02-18T09:19:30;6.80;;;1.60;;
65853;SDS011;52627;48.838;2.402;2023-02-18T09:21:58;3.20;;;1.20;;
65853;SDS011;52627;48.838;2.402;2023-02-18T09:24:26;4.70;;;1.50;;
65853;SDS011;52627;48.838;2.402;2023-02-18T09:26:54;5.00;;;1.40;;
65853;SDS011;52627;48.838;2.402;2023-02-18T09:29:22;4.50;;;1.20;;
65853;SDS011;52627;48.838;2.402;2023-02-18T09:31:49;2.90;;;1.10;;
65853;SDS011;52627;48.838;2.402;2023-02-18T09:34:17;5.50;;;1.70;;
65853;SDS011;52627;48.838;2.402;2023-02-18T09:36:44;5.70;;;1.80;;
65853;SDS011;52627;48.838;2.402;2023-02-18T09:39:11;4.30;;;1.20;;
65853;SDS011;52627;48.838;2.402;2023-02-18T09:41:46;4.80;;;1.30;;
65853;SDS011;52627;48.838;2.402;2023-02-18T09:47:02;4.20;;;1.20;;
65853;SDS011;52627;48.838;2.402;2023-02-18T09:49:36;4.80;;;1.50;;
65853;SDS011;52627;48.838;2.402;2023-02-18T09:52:19;3.60;;;1.20;;
65853;SDS011;52627;48.838;2.402;2023-02-18T09:54:52;7.20;;;1.60;;
65853;SDS011;52627;48.838;2.402;2023-02-18T09:57:24;3.40;;;1.10;;
65853;SDS011;52627;48.838;2.402;2023-02-18T10:00:12;4.80;;;1.50;;
65853;SDS011;52627;48.838;2.402;2023-02-18T10:02:53;4.50;;;1.10;;
65853;SDS011;52627;48.838;2.402;2023-02-18T10:05:23;4.40;;;1.40;;
65853;SDS011;52627;48.838;2.402;2023-02-18T10:07:55;4.50;;;1.30;;
65853;SDS011;52627;48.838;2.402;2023-02-18T10:10:41;3.60;;;1.10;;
65853;SDS011;52627;48.838;2.402;2023-02-18T10:13:24;5.30;;;1.40;;
65853;SDS011;52627;48.838;2.402;2023-02-18T10:15:55;5.90;;;1.60;;
65853;SDS011;52627;48.838;2.402;2023-02-18T10:18:32;3.40;;;1.30;;
65853;SDS011;52627;48.838;2.402;2023-02-18T10:21:10;4.80;;;1.10;;
65853;SDS011;52627;48.838;2.402;2023-02-18T10:23:52;3.10;;;1.10;;
65853;SDS011;52627;48.838;2.402;2023-02-18T10:26:24;5.60;;;1.40;;
65853;SDS011;52627;48.838;2.402;2023-02-18T10:28:52;5.40;;;1.40;;
65853;SDS011;52627;48.838;2.402;2023-02-18T10:31:27;3.80;;;1.20;;
65853;SDS011;52627;48.838;2.402;2023-02-18T10:34:14;5.10;;;1.20;;
65853;SDS011;52627;48.838;2.402;2023-02-18T10:36:54;5.70;;;1.20;;
65853;SDS011;52627;48.838;2.402;2023-02-18T10:45:46;6.20;;;1.40;;
65853;SDS011;52627;48.838;2.402;2023-02-18T10:50:48;4.60;;;1.30;;
65853;SDS011;52627;48.838;2.402;2023-02-18T10:53:37;5.00;;;1.10;;
65853;SDS011;52627;48.838;2.402;2023-02-18T10:56:07;6.90;;;1.50;;
65853;SDS011;52627;48.838;2.402;2023-02-18T10:58:41;4.80;;;1.80;;
65853;SDS011;52627;48.838;2.402;2023-02-18T11:01:19;5.00;;;1.40;;
65853;SDS011;52627;48.838;2.402;2023-02-18T11:03:49;3.20;;;1.10;;
65853;SDS011;52627;48.838;2.402;2023-02-18T11:06:45;3.10;;;1.10;;
65853;SDS011;52627;48.838;2.402;2023-02-18T11:09:28;4.00;;;1.10;;
65853;SDS011;52627;48.838;2.402;2023-02-18T11:12:05;4.30;;;1.30;;
65853;SDS011;52627;48.838;2.402;2023-02-18T11:14:43;4.70;;;1.20;;
65853;SDS011;52627;48.838;2.402;2023-02-18T11:17:27;6.50;;;1.30;;
65853;SDS011;52627;48.838;2.402;2023-02-18T11:19:59;4.60;;;1.40;;
65853;SDS011;52627;48.838;2.402;2023-02-18T11:25:19;6.40;;;1.50;;
65853;SDS011;52627;48.838;2.402;2023-02-18T11:27:52;4.50;;;1.40;;
65853;SDS011;52627;48.838;2.402;2023-02-18T11:30:23;7.60;;;1.70;;
65853;SDS011;52627;48.838;2.402;2023-02-18T11:32:57;5.20;;;2.00;;
65853;SDS011;52627;48.838;2.402;2023-02-18T11:35:29;4.10;;;1.20;;
65853;SDS011;52627;48.838;2.402;2023-02-18T11:37:59;6.00;;;1.90;;
65853;SDS011;52627;48.838;2.402;2023-02-18T11:40:34;5.20;;;1.50;;
65853;SDS011;52627;48.838;2.402;2023-02-18T11:43:11;4.90;;;1.60;;
65853;SDS011;52627;48.838;2.402;2023-02-18T11:45:41;3.90;;;1.40;;
65853;SDS011;52627;48.838;2.402;2023-02-18T11:48:22;6.40;;;1.60;;
65853;SDS011;52627;48.838;2.402;2023-02-18T11:50:52;7.20;;;1.30;;
65853;SDS011;52627;48.838;2.402;2023-02-18T11:53:37;7.20;;;2.30;;
65853;SDS011;52627;48.838;2.402;2023-02-18T11:56:16;6.60;;;1.90;;
65853;SDS011;52627;48.838;2.402;2023-02-18T11:58:47;5.80;;;1.40;;
65853;SDS011;52627;48.838;2.402;2023-02-18T12:04:04;4.00;;;1.40;;
65853;SDS011;52627;48.838;2.402;2023-02-18T12:09:36;4.30;;;1.10;;
65853;SDS011;52627;48.838;2.402;2023-02-18T12:12:35;3.90;;;1.20;;
65853;SDS011;52627;48.838;2.402;2023-02-18T12:15:17;4.60;;;1.30;;
65853;SDS011;52627;48.838;2.402;2023-02-18T12:38:54;5.10;;;1.60;;
65853;SDS011;52627;48.838;2.402;2023-02-18T12:42:07;4.40;;;1.40;;
65853;SDS011;52627;48.838;2.402;2023-02-18T12:44:45;5.10;;;1.30;;
65853;SDS011;52627;48.838;2.402;2023-02-18T12:47:29;4.70;;;1.50;;
65853;SDS011;52627;48.838;2.402;2023-02-18T12:53:40;3.10;;;1.30;;
65853;SDS011;52627;48.838;2.402;2023-02-18T13:14:23;4.50;;;1.10;;
65853;SDS011;52627;48.838;2.402;2023-02-18T13:16:55;4.50;;;1.10;;
65853;SDS011;52627;48.838;2.402;2023-02-18T13:22:01;3.50;;;1.30;;
65853;SDS011;52627;48.838;2.402;2023-02-18T13:24:35;4.00;;;1.10;;
65853;SDS011;52627;48.838;2.402;2023-02-18T13:27:32;4.80;;;1.30;;
65853;SDS011;52627;48.838;2.402;2023-02-18T13:30:18;5.00;;;1.10;;
65853;SDS011;52627;48.838;2.402;2023-02-18T13:33:46;6.70;;;1.40;;
65853;SDS011;52627;48.838;2.402;2023-02-18T13:36:24;3.40;;;1.30;;
65853;SDS011;52627;48.838;2.402;2023-02-18T13:39:08;3.20;;;0.90;;
65853;SDS011;52627;48.838;2.402;2023-02-18T13:41:40;2.80;;;1.00;;
65853;SDS011;52627;48.838;2.402;2023-02-18T13:46:53;5.40;;;1.30;;
65853;SDS011;52627;48.838;2.402;2023-02-18T13:49:25;2.90;;;1.20;;
65853;SDS011;52627;48.838;2.402;2023-02-18T13:51:59;4.40;;;1.20;;
65853;SDS011;52627;48.838;2.402;2023-02-18T13:54:47;4.00;;;1.10;;
65853;SDS011;52627;48.838;2.402;2023-02-18T13:57:19;2.70;;;0.90;;
65853;SDS011;52627;48.838;2.402;2023-02-18T13:59:57;3.40;;;1.20;;
65853;SDS011;52627;48.838;2.402;2023-02-18T14:02:32;4.50;;;1.30;;
65853;SDS011;52627;48.838;2.402;2023-02-18T14:10:05;3.70;;;1.70;;
65853;SDS011;52627;48.838;2.402;2023-02-18T14:12:34;4.70;;;1.20;;
65853;SDS011;52627;48.838;2.402;2023-02-18T14:25:54;2.70;;;1.20;;
65853;SDS011;52627;48.838;2.402;2023-02-18T14:31:26;4.50;;;1.30;;
65853;SDS011;52627;48.838;2.402;2023-02-18T14:34:04;5.40;;;1.40;;
65853;SDS011;52627;48.838;2.402;2023-02-18T14:51:31;3.40;;;1.10;;
65853;SDS011;52627;48.838;2.402;2023-02-18T14:54:12;2.50;;;1.10;;
65853;SDS011;52627;48.838;2.402;2023-02-18T14:59:36;2.80;;;1.20;;
65853;SDS011;52627;48.838;2.402;2023-02-18T15:02:20;2.50;;;1.10;;
65853;SDS011;52627;48.838;2.402;2023-02-18T15:04:49;2.90;;;1.20;;
65853;SDS011;52627;48.838;2.402;2023-02-18T15:07:19;3.50;;;1.20;;
65853;SDS011;52627;48.838;2.402;2023-02-18T15:09:49;2.30;;;1.00;;
65853;SDS011;52627;48.838;2.402;2023-02-18T15:12:21;5.00;;;1.10;;
65853;SDS011;52627;48.838;2.402;2023-02-18T15:14:52;4.70;;;1.20;;
65853;SDS011;52627;48.838;2.402;2023-02-18T15:17:24;5.50;;;1.30;;
65853;SDS011;52627;48.838;2.402;2023-02-18T15:19:59;2.30;;;1.00;;
65853;SDS011;52627;48.838;2.402;2023-02-18T15:22:33;3.60;;;1.00;;
65853;SDS011;52627;48.838;2.402;2023-02-18T15:25:02;3.20;;;1.10;;
65853;SDS011;52627;48.838;2.402;2023-02-18T15:27:32;3.50;;;1.50;;
65853;SDS011;52627;48.838;2.402;2023-02-18T15:30:39;2.70;;;1.20;;
65853;SDS011;52627;48.838;2.402;2023-02-18T15:33:10;4.60;;;1.60;;
65853;SDS011;52627;48.838;2.402;2023-02-18T15:35:40;2.00;;;0.90;;
65853;SDS011;52627;48.838;2.402;2023-02-18T15:38:18;4.90;;;1.10;;
65853;SDS011;52627;48.838;2.402;2023-02-18T15:40:49;2.50;;;1.10;;
65853;SDS011;52627;48.838;2.402;2023-02-18T15:43:21;3.90;;;1.20;;
65853;SDS011;52627;48.838;2.402;2023-02-18T15:45:52;4.10;;;1.20;;
65853;SDS011;52627;48.838;2.402;2023-02-18T15:51:05;3.40;;;1.40;;
65853;SDS011;52627;48.838;2.402;2023-02-18T15:53:46;2.60;;;1.20;;
65853;SDS011;52627;48.838;2.402;2023-02-18T15:56:41;4.40;;;1.10;;
65853;SDS011;52627;48.838;2.402;2023-02-18T15:59:26;6.80;;;1.20;;
65853;SDS011;52627;48.838;2.402;2023-02-18T16:04:40;4.00;;;1.30;;
65853;SDS011;52627;48.838;2.402;2023-02-18T16:07:36;3.60;;;1.20;;
65853;SDS011;52627;48.838;2.402;2023-02-18T16:12:53;3.80;;;1.40;;
65853;SDS011;52627;48.838;2.402;2023-02-18T16:15:28;5.00;;;1.60;;
65853;SDS011;52627;48.838;2.402;2023-02-18T16:17:58;4.30;;;1.40;;
65853;SDS011;52627;48.838;2.402;2023-02-18T16:20:30;5.50;;;1.40;;
65853;SDS011;52627;48.838;2.402;2023-02-18T16:23:13;3.30;;;1.50;;
65853;SDS011;52627;48.838;2.402;2023-02-18T16:28:25;5.80;;;1.40;;
65853;SDS011;52627;48.838;2.402;2023-02-18T16:30:57;4.90;;;1.60;;
65853;SDS011;52627;48.838;2.402;2023-02-18T16:33:25;3.40;;;1.20;;
65853;SDS011;52627;48.838;2.402;2023-02-18T16:35:53;5.20;;;1.90;;
65853;SDS011;52627;48.838;2.402;2023-02-18T16:38:24;4.70;;;1.30;;
65853;SDS011;52627;48.838;2.402;2023-02-18T16:40:53;7.30;;;1.40;;
65853;SDS011;52627;48.838;2.402;2023-02-18T16:43:24;4.50;;;1.40;;
65853;SDS011;52627;48.838;2.402;2023-02-18T16:45:56;4.80;;;1.40;;
65853;SDS011;52627;48.838;2.402;2023-02-18T16:48:29;4.60;;;1.70;;
65853;SDS011;52627;48.838;2.402;2023-02-18T16:51:10;4.00;;;1.60;;
65853;SDS011;52627;48.838;2.402;2023-02-18T16:53:40;7.30;;;1.90;;
65853;SDS011;52627;48.838;2.402;2023-02-18T16:56:19;5.50;;;1.70;;
65853;SDS011;52627;48.838;2.402;2023-02-18T16:58:49;4.60;;;1.60;;
65853;SDS011;52627;48.838;2.402;2023-02-18T17:01:35;8.30;;;1.80;;
65853;SDS011;52627;48.838;2.402;2023-02-18T17:04:11;4.00;;;1.50;;
65853;SDS011;52627;48.838;2.402;2023-02-18T17:06:41;4.50;;;1.70;;
65853;SDS011;52627;48.838;2.402;2023-02-18T17:09:16;5.90;;;1.60;;
65853;SDS011;52627;48.838;2.402;2023-02-18T17:11:48;4.90;;;1.90;;
65853;SDS011;52627;48.838;2.402;2023-02-18T17:14:19;3.60;;;1.60;;
65853;SDS011;52627;48.838;2.402;2023-02-18T17:16:49;5.70;;;1.80;;
65853;SDS011;52627;48.838;2.402;2023-02-18T17:19:19;4.00;;;2.00;;
65853;SDS011;52627;48.838;2.402;2023-02-18T17:21:47;5.60;;;1.70;;
65853;SDS011;52627;48.838;2.402;2023-02-18T17:24:17;5.90;;;1.70;;
65853;SDS011;52627;48.838;2.402;2023-02-18T17:26:44;6.00;;;1.70;;
65853;SDS011;52627;48.838;2.402;2023-02-18T17:29:12;6.70;;;2.00;;
65853;SDS011;52627;48.838;2.402;2023-02-18T17:31:42;5.20;;;2.00;;
65853;SDS011;52627;48.838;2.402;2023-02-18T17:34:17;6.20;;;1.50;;
65853;SDS011;52627;48.838;2.402;2023-02-18T17:36:49;3.90;;;2.10;;
65853;SDS011;52627;48.838;2.402;2023-02-18T17:39:16;3.20;;;1.60;;
65853;SDS011;52627;48.838;2.402;2023-02-18T17:41:47;3.30;;;1.60;;
65853;SDS011;52627;48.838;2.402;2023-02-18T17:44:15;4.30;;;2.00;;
65853;SDS011;52627;48.838;2.402;2023-02-18T17:46:47;4.30;;;1.90;;